05:09
Airports
History
Links
Donate
Help keep this website running!
PayPal
Bitcoin
This page is community maintained. The information is intended for PC simulator navigation or reference.
Always use approved charts for navigation.
9M9
4B Ranch
4B Ranch (9M9)
Tallulah, Louisiana, United States (71282)
4
Lat/Lng:32° 24' 35.51" N / 91° 20' 55.41" W
32.409865 / -91.348725
Elevation:80'ft / 24mMSL
ID / ICAO:9M9
Runways:1
Longest:10-28
Grass 724m / 2,376ft
Nearby Weather04:53 GMT 2017-09-21
Nearby weather at KTVR, Vicksburg Tallulah Rgnl located 19.2 nautical miles from 9M9
Altimeter: 30.00
Visibility: 10.0 statute miles
Wind: 3 knots (from 170°)
Temp: 21°c / 70°f
Humidity: 100.0%

METAR: KTVR 210453Z AUTO 17003KT 10SM CLR 21/21 A3000 RMK AO2 SLP165 T02110211 $

(Powered by phpweather)
Nearby VORs <50NM
Nearby NDBs
Runway 10 / 28
Dimensions:724.2 x 30.5m 2376' x 100'ft
Surface:Grass
Runway 10 [A]Runway 28 [B]
Heading:102°TH 282°TH
Lat:
Lng:
32° 24' 38.14"N
91° 21' 8.86"W
32° 24' 32.89"N
91° 20' 41.96"W
User Notes and Comments
32° 24' 35.51" N / 91° 20' 55.41" W
Distance To
Airport ID:
Nearby Airports
4 Gustafson 2.5 NM
71LA NE 50°
(U) Delhi Muni 8.7 NM
0M9 W 270°
(U) Scott 11.7 NM
M80 E 87°
4 Red Beard Dusting Service 15.6 NM
9M5 SE 124°
4 Norris Airstrip 19.0 NM
52R S 191°
(U) Vicksburg Tallulah Rgnl 19.2 NM
KTVR ( WX ) ESE 102°
(U) Bayou Meadows 20.2 NM
9M1 N 354°
VFR Chart
Flight Planning at SkyVector.com